createdAt,value
2018-05-14T00:00:50.230Z,0.114
2018-05-14T00:02:50.401Z,0.080
2018-05-14T00:04:49.959Z,0.143
2018-05-14T00:06:50.205Z,0.148
2018-05-14T00:08:50.408Z,0.125
2018-05-14T00:10:50.547Z,0.165
2018-05-14T00:12:50.727Z,0.131
2018-05-14T00:14:49.891Z,0.131
2018-05-14T00:16:50.195Z,0.148
2018-05-14T00:18:50.385Z,0.148
2018-05-14T00:20:50.533Z,0.177
2018-05-14T00:22:50.695Z,0.188
2018-05-14T00:24:49.840Z,0.091
2018-05-14T00:26:50.057Z,0.131
2018-05-14T00:28:50.268Z,0.165
2018-05-14T00:30:50.490Z,0.182
2018-05-14T00:32:50.698Z,0.103
2018-05-14T00:34:50.020Z,0.114
2018-05-14T00:36:50.341Z,0.154
2018-05-14T00:38:50.579Z,0.154
2018-05-14T00:40:50.799Z,0.165
2018-05-14T00:42:49.964Z,0.154
2018-05-14T00:44:50.099Z,0.171
2018-05-14T00:46:50.322Z,0.143
2018-05-14T00:48:50.447Z,0.188
2018-05-14T00:50:50.613Z,0.148
2018-05-14T00:52:50.739Z,0.120
2018-05-14T00:54:49.910Z,0.171
2018-05-14T00:56:50.215Z,0.165
2018-05-14T00:58:50.355Z,0.120
2018-05-14T01:00:50.579Z,0.160
2018-05-14T01:02:50.776Z,0.131
2018-05-14T01:04:50.112Z,0.165
2018-05-14T01:06:50.401Z,0.188
2018-05-14T01:08:50.493Z,0.182
2018-05-14T01:10:50.673Z,0.171
2018-05-14T01:12:49.933Z,0.125
2018-05-14T01:14:50.037Z,0.103
2018-05-14T01:16:50.207Z,0.234
2018-05-14T01:18:50.321Z,0.165
2018-05-14T01:20:50.408Z,0.160
2018-05-14T01:22:50.515Z,0.143
2018-05-14T01:24:50.774Z,0.177
2018-05-14T01:26:50.055Z,0.200
2018-05-14T01:28:50.156Z,0.125
2018-05-14T01:30:50.324Z,0.165
2018-05-14T01:32:50.416Z,0.194
2018-05-14T01:34:49.913Z,0.154
2018-05-14T01:36:50.123Z,0.108
2018-05-14T01:38:50.208Z,0.120
2018-05-14T01:40:50.344Z,0.125
2018-05-14T01:42:50.518Z,0.171
2018-05-14T01:44:50.781Z,0.194
2018-05-14T01:46:50.029Z,0.171
2018-05-14T01:48:50.177Z,0.177
2018-05-14T01:50:50.393Z,0.131
2018-05-14T01:52:50.539Z,0.165
2018-05-14T01:54:49.841Z,0.154
2018-05-14T01:56:50.111Z,0.148
2018-05-14T01:58:50.240Z,0.200
2018-05-14T02:00:50.421Z,0.211
2018-05-14T02:02:50.538Z,0.177
2018-05-14T02:04:49.895Z,0.148
2018-05-14T02:06:50.456Z,0.194
2018-05-14T02:08:50.530Z,0.165
2018-05-14T02:10:50.675Z,0.160
2018-05-14T02:12:49.866Z,0.143
2018-05-14T02:14:50.000Z,0.194
2018-05-14T02:16:50.237Z,0.154
2018-05-14T02:18:50.423Z,0.171
2018-05-14T02:20:50.602Z,0.131
2018-05-14T02:22:49.805Z,0.131
2018-05-14T02:24:49.917Z,0.160
2018-05-14T02:26:50.254Z,0.114
2018-05-14T02:28:50.437Z,0.143
2018-05-14T02:30:50.572Z,0.120
2018-05-14T02:32:50.730Z,0.120
2018-05-14T02:34:50.024Z,0.148
2018-05-14T02:36:50.312Z,0.182
2018-05-14T02:38:50.418Z,0.160
2018-05-14T02:40:50.582Z,0.131
2018-05-14T02:42:50.708Z,0.143
2018-05-14T02:44:49.834Z,0.143
2018-05-14T02:46:50.070Z,0.177
2018-05-14T02:48:50.208Z,0.143
2018-05-14T02:50:50.369Z,0.182
2018-05-14T02:52:50.502Z,0.171
2018-05-14T02:54:50.645Z,0.125
2018-05-14T02:56:49.979Z,0.200
2018-05-14T02:58:50.154Z,0.154
2018-05-14T03:00:50.357Z,0.171
2018-05-14T03:02:50.493Z,0.194
2018-05-14T03:04:50.088Z,0.114
2018-05-14T03:06:50.465Z,0.154
2018-05-14T03:08:50.579Z,0.154
2018-05-14T03:10:50.703Z,0.165
2018-05-14T03:12:49.874Z,0.160
2018-05-14T03:14:50.015Z,0.154
2018-05-14T03:16:50.278Z,0.108
2018-05-14T03:18:50.439Z,0.097
2018-05-14T03:20:50.619Z,0.108
2018-05-14T03:22:50.788Z,0.194
2018-05-14T03:24:49.941Z,0.234
2018-05-14T03:26:50.159Z,0.171
2018-05-14T03:28:50.289Z,0.188
2018-05-14T03:30:50.453Z,0.171
2018-05-14T03:32:50.546Z,0.125
2018-05-14T03:34:50.152Z,0.171
2018-05-14T03:36:50.356Z,0.154
2018-05-14T03:38:50.446Z,0.137
2018-05-14T03:40:50.629Z,0.194
2018-05-14T03:42:50.724Z,0.148
2018-05-14T03:44:49.842Z,0.165
2018-05-14T03:46:50.017Z,0.211
2018-05-14T03:48:50.171Z,0.200
2018-05-14T03:50:50.291Z,0.165
2018-05-14T03:52:50.425Z,0.154
2018-05-14T03:54:50.610Z,0.148
2018-05-14T03:56:50.001Z,0.171
2018-05-14T03:58:50.152Z,0.154
2018-05-14T04:00:50.334Z,0.182
2018-05-14T04:02:50.037Z,0.200
2018-05-14T04:04:49.997Z,0.114
2018-05-14T04:06:50.762Z,0.205
2018-05-14T04:08:49.854Z,0.205
2018-05-14T04:10:50.038Z,0.154
2018-05-14T04:12:50.211Z,0.143
2018-05-14T04:14:50.416Z,0.114
2018-05-14T04:16:50.726Z,0.160
2018-05-14T04:18:49.928Z,0.131
2018-05-14T04:20:50.024Z,0.108
2018-05-14T04:22:50.193Z,0.154
2018-05-14T04:24:50.305Z,0.154
2018-05-14T04:26:50.136Z,0.091
2018-05-14T04:28:50.284Z,0.137
2018-05-14T04:30:50.451Z,0.125
2018-05-14T04:32:50.630Z,0.137
2018-05-14T04:34:50.238Z,0.154
2018-05-14T04:36:50.495Z,0.182
2018-05-14T04:38:50.625Z,0.154
2018-05-14T04:40:49.829Z,0.120
2018-05-14T04:42:50.016Z,0.177
2018-05-14T04:44:50.136Z,0.125
2018-05-14T04:46:50.502Z,0.177
2018-05-14T04:48:50.609Z,0.120
2018-05-14T04:50:50.785Z,0.143
2018-05-14T04:52:49.938Z,0.154
2018-05-14T04:54:50.142Z,0.120
2018-05-14T04:56:50.380Z,0.160
2018-05-14T04:58:50.462Z,0.131
2018-05-14T05:00:50.687Z,0.120
2018-05-14T05:02:49.822Z,0.217
2018-05-14T05:04:50.171Z,0.188
2018-05-14T05:06:50.484Z,0.211
2018-05-14T05:08:50.627Z,0.211
2018-05-14T05:10:50.797Z,0.182
2018-05-14T05:12:49.903Z,0.131
2018-05-14T05:14:50.072Z,0.125
2018-05-14T05:16:50.309Z,0.143
2018-05-14T05:18:50.438Z,0.182
2018-05-14T05:20:50.590Z,0.143
2018-05-14T05:22:51.049Z,0.120
2018-05-14T05:24:50.231Z,0.154
2018-05-14T05:26:50.512Z,0.205
2018-05-14T05:28:50.610Z,0.137
2018-05-14T05:30:50.804Z,0.182
2018-05-14T05:32:49.900Z,0.114
2018-05-14T05:34:50.283Z,0.177
2018-05-14T05:36:50.138Z,0.154
2018-05-14T05:38:50.348Z,0.177
2018-05-14T05:40:50.504Z,0.188
2018-05-14T05:42:50.645Z,0.148
2018-05-14T05:44:50.856Z,0.154
2018-05-14T05:46:50.043Z,0.160
2018-05-14T05:48:50.237Z,0.148
2018-05-14T05:50:50.329Z,0.137
2018-05-14T05:52:50.451Z,0.160
2018-05-14T05:54:50.622Z,0.108
2018-05-14T05:56:49.915Z,0.143
2018-05-14T05:58:50.087Z,0.143
2018-05-14T06:00:50.211Z,0.120
2018-05-14T06:02:50.430Z,0.165
2018-05-14T06:04:50.709Z,0.114
2018-05-14T06:06:49.903Z,0.171
2018-05-14T06:08:50.061Z,0.217
2018-05-14T06:10:50.265Z,0.143
2018-05-14T06:12:50.510Z,0.160
2018-05-14T06:14:50.645Z,0.091
2018-05-14T06:16:49.959Z,0.154
2018-05-14T06:18:50.094Z,0.091
2018-05-14T06:20:50.247Z,0.171
2018-05-14T06:22:50.334Z,0.131
2018-05-14T06:24:50.454Z,0.120
2018-05-14T06:26:50.767Z,0.171
2018-05-14T06:28:49.880Z,0.103
2018-05-14T06:30:49.974Z,0.188
2018-05-14T06:32:50.131Z,0.194
2018-05-14T06:34:50.539Z,0.160
2018-05-14T06:36:50.725Z,0.120
2018-05-14T06:38:49.888Z,0.154
2018-05-14T06:40:50.079Z,0.154
2018-05-14T06:42:50.176Z,0.103
2018-05-14T06:44:50.320Z,0.125
2018-05-14T06:46:50.562Z,0.120
2018-05-14T06:48:50.710Z,0.160
2018-05-14T06:50:49.819Z,0.137
2018-05-14T06:52:50.191Z,0.154
2018-05-14T06:54:50.395Z,0.131
2018-05-14T06:56:50.643Z,0.171
2018-05-14T06:58:50.778Z,0.103
2018-05-14T07:00:49.973Z,0.188
2018-05-14T07:02:50.083Z,0.148
2018-05-14T07:04:50.501Z,0.114
2018-05-14T07:06:50.787Z,0.148
2018-05-14T07:08:49.971Z,0.114
2018-05-14T07:10:50.170Z,0.120
2018-05-14T07:12:50.328Z,0.148
2018-05-14T07:14:50.466Z,0.182
2018-05-14T07:16:50.706Z,0.205
2018-05-14T07:18:49.898Z,0.143
2018-05-14T07:20:49.983Z,0.171
2018-05-14T07:22:50.078Z,0.200
2018-05-14T07:24:50.783Z,0.137
2018-05-14T07:26:50.472Z,0.137
2018-05-14T07:28:50.625Z,0.182
2018-05-14T07:30:49.859Z,0.143
2018-05-14T07:32:49.949Z,0.165
2018-05-14T07:34:50.514Z,0.200
2018-05-14T07:36:50.713Z,0.154
2018-05-14T07:38:49.853Z,0.143
2018-05-14T07:40:50.544Z,0.160
2018-05-14T07:42:50.637Z,0.148
2018-05-14T07:44:50.779Z,0.154
2018-05-14T07:46:50.262Z,0.188
2018-05-14T07:48:50.388Z,0.160
2018-05-14T07:50:50.589Z,0.074
2018-05-14T07:52:50.799Z,0.108
2018-05-14T07:54:50.379Z,0.137
2018-05-14T07:56:50.592Z,0.137
2018-05-14T07:58:50.806Z,0.148
2018-05-14T08:00:49.936Z,0.154
2018-05-14T08:02:50.088Z,0.160
2018-05-14T08:04:50.562Z,0.108
2018-05-14T08:06:50.801Z,0.154
2018-05-14T08:08:49.971Z,0.217
2018-05-14T08:10:50.074Z,0.091
2018-05-14T08:12:50.249Z,0.143
2018-05-14T08:14:50.429Z,0.148
2018-05-14T08:16:50.681Z,0.200
2018-05-14T08:18:50.811Z,0.114
2018-05-14T08:20:50.121Z,0.125
2018-05-14T08:22:50.289Z,0.205
2018-05-14T08:24:50.402Z,0.177
2018-05-14T08:26:50.740Z,0.194
2018-05-14T08:28:49.850Z,0.143
2018-05-14T08:30:49.964Z,0.177
2018-05-14T08:32:50.052Z,0.182
2018-05-14T08:34:50.376Z,0.137
2018-05-14T08:36:50.609Z,0.137
2018-05-14T08:38:50.754Z,0.171
2018-05-14T08:40:49.861Z,0.120
2018-05-14T08:42:50.224Z,0.165
2018-05-14T08:44:50.627Z,0.154
2018-05-14T08:46:50.030Z,0.165
2018-05-14T08:48:50.304Z,0.160
2018-05-14T08:50:50.544Z,0.160
2018-05-14T08:52:50.697Z,0.137
2018-05-14T08:54:50.767Z,0.154
2018-05-14T08:56:50.001Z,0.137
2018-05-14T08:58:50.118Z,0.171
2018-05-14T09:00:50.451Z,0.188
2018-05-14T09:02:50.749Z,0.188
2018-05-14T09:04:50.138Z,0.165
2018-05-14T09:06:50.393Z,0.143
2018-05-14T09:08:50.580Z,0.165
2018-05-14T09:10:50.650Z,0.148
2018-05-14T09:12:49.812Z,0.148
2018-05-14T09:14:49.966Z,0.148
2018-05-14T09:16:50.221Z,0.131
2018-05-14T09:18:50.379Z,0.154
2018-05-14T09:20:50.550Z,0.165
2018-05-14T09:22:50.701Z,0.125
2018-05-14T09:24:49.854Z,0.143
2018-05-14T09:26:50.073Z,0.148
2018-05-14T09:28:50.235Z,0.120
2018-05-14T09:30:50.489Z,0.148
2018-05-14T09:32:50.625Z,0.194
2018-05-14T09:34:50.063Z,0.131
2018-05-14T09:36:50.648Z,0.165
2018-05-14T09:38:50.761Z,0.160
2018-05-14T09:40:49.862Z,0.143
2018-05-14T09:42:49.963Z,0.143
2018-05-14T09:44:50.076Z,0.160
2018-05-14T09:46:50.319Z,0.125
2018-05-14T09:48:50.493Z,0.182
2018-05-14T09:50:50.626Z,0.103
2018-05-14T09:52:50.768Z,0.160
2018-05-14T09:54:49.892Z,0.125
2018-05-14T09:56:50.062Z,0.148
2018-05-14T09:58:50.216Z,0.108
2018-05-14T10:00:50.354Z,0.114
2018-05-14T10:02:50.428Z,0.171
2018-05-14T10:04:50.795Z,0.171
2018-05-14T10:06:50.232Z,0.160
2018-05-14T10:08:50.337Z,0.137
2018-05-14T10:10:50.496Z,0.194
2018-05-14T10:12:50.643Z,0.188
2018-05-14T10:14:50.771Z,0.165
2018-05-14T10:16:49.981Z,0.143
2018-05-14T10:18:50.534Z,0.131
2018-05-14T10:20:49.956Z,0.154
2018-05-14T10:22:50.077Z,0.154
2018-05-14T10:24:50.202Z,0.103
2018-05-14T10:26:50.371Z,0.125
2018-05-14T10:28:50.495Z,0.171
2018-05-14T10:30:50.710Z,0.154
2018-05-14T10:32:49.837Z,0.194
2018-05-14T10:34:50.354Z,0.171
2018-05-14T10:36:50.573Z,0.148
2018-05-14T10:38:50.870Z,0.171
2018-05-14T10:40:50.255Z,0.114
2018-05-14T10:42:50.406Z,0.171
2018-05-14T10:44:50.663Z,0.108
2018-05-14T10:46:50.768Z,0.165
2018-05-14T10:48:50.183Z,0.154
2018-05-14T10:50:50.336Z,0.188
2018-05-14T10:52:50.923Z,0.131
2018-05-14T10:54:50.195Z,0.148
2018-05-14T10:56:50.428Z,0.171
2018-05-14T10:58:50.560Z,0.160
2018-05-14T11:00:50.668Z,0.143
2018-05-14T11:02:49.844Z,0.154
2018-05-14T11:04:50.204Z,0.188
2018-05-14T11:06:50.428Z,0.131
2018-05-14T11:08:50.565Z,0.182
2018-05-14T11:10:50.715Z,0.120
2018-05-14T11:12:49.899Z,0.200
2018-05-14T11:14:50.089Z,0.171
2018-05-14T11:16:50.332Z,0.160
2018-05-14T11:18:50.945Z,0.160
2018-05-14T11:20:50.225Z,0.171
2018-05-14T11:22:50.309Z,0.148
2018-05-14T11:24:50.436Z,0.143
2018-05-14T11:26:50.741Z,0.194
2018-05-14T11:28:49.889Z,0.165
2018-05-14T11:30:49.993Z,0.137
2018-05-14T11:32:50.163Z,0.194
2018-05-14T11:34:50.642Z,0.131
2018-05-14T11:36:49.894Z,0.165
2018-05-14T11:38:50.085Z,0.160
2018-05-14T11:40:50.202Z,0.211
2018-05-14T11:42:50.316Z,0.154
2018-05-14T11:44:50.428Z,0.125
2018-05-14T11:46:50.664Z,0.154
2018-05-14T11:48:49.912Z,0.188
2018-05-14T11:50:50.270Z,0.137
2018-05-14T11:52:50.584Z,0.148
2018-05-14T11:54:50.670Z,0.137
2018-05-14T11:56:50.079Z,0.154
2018-05-14T11:58:50.693Z,0.131
2018-05-14T12:00:49.800Z,0.188
2018-05-14T12:02:50.187Z,0.137
2018-05-14T12:04:50.782Z,0.114
2018-05-14T12:06:50.054Z,0.177
2018-05-14T12:08:50.212Z,0.137
2018-05-14T12:10:50.415Z,0.114
2018-05-14T12:12:50.528Z,0.194
2018-05-14T12:14:50.610Z,0.194
2018-05-14T12:16:49.853Z,0.160
2018-05-14T12:18:49.953Z,0.165
2018-05-14T12:20:50.006Z,0.160
2018-05-14T12:22:50.192Z,0.125
2018-05-14T12:24:50.324Z,0.137
2018-05-14T12:26:50.599Z,0.160
2018-05-14T12:28:50.728Z,0.182
2018-05-14T12:30:49.865Z,0.154
2018-05-14T12:32:50.013Z,0.188
2018-05-14T12:34:50.351Z,0.131
2018-05-14T12:36:50.626Z,0.120
2018-05-14T12:38:50.847Z,0.165
2018-05-14T12:40:49.963Z,0.211
2018-05-14T12:42:50.124Z,0.160
2018-05-14T12:44:50.243Z,0.137
2018-05-14T12:46:50.446Z,0.182
2018-05-14T12:48:50.572Z,0.143
2018-05-14T12:50:50.661Z,0.125
2018-05-14T12:52:49.847Z,0.125
2018-05-14T12:54:50.059Z,0.171
2018-05-14T12:56:50.418Z,0.165
2018-05-14T12:58:50.580Z,0.006
2018-05-14T13:00:50.670Z,0.000
2018-05-14T13:02:49.885Z,0.000
2018-05-14T13:04:50.373Z,0.000
2018-05-14T13:06:50.753Z,0.000
2018-05-14T13:08:49.947Z,0.000
2018-05-14T13:10:50.109Z,0.000
2018-05-14T13:12:50.250Z,0.000
2018-05-14T13:14:50.343Z,0.000
2018-05-14T13:16:50.619Z,0.000
2018-05-14T13:18:50.724Z,0.000
2018-05-14T13:20:49.853Z,0.000
2018-05-14T13:22:49.964Z,0.000
2018-05-14T13:24:50.052Z,0.000
2018-05-14T13:26:50.303Z,0.000
2018-05-14T13:28:50.382Z,0.000
2018-05-14T13:30:50.555Z,0.000
2018-05-14T13:32:50.681Z,0.000
2018-05-14T13:34:50.150Z,0.000
2018-05-14T13:36:50.412Z,0.000
2018-05-14T13:38:50.537Z,0.000
2018-05-14T13:40:50.739Z,0.000
2018-05-14T13:42:50.231Z,0.000
2018-05-14T13:44:50.379Z,0.000
2018-05-14T13:46:50.614Z,0.000
2018-05-14T13:48:50.695Z,0.000
2018-05-14T13:50:50.180Z,0.000
2018-05-14T13:52:50.447Z,0.000
2018-05-14T13:54:50.526Z,0.000
2018-05-14T13:56:49.815Z,0.000
2018-05-14T13:58:49.931Z,0.000
2018-05-14T14:00:50.016Z,0.000
2018-05-14T14:02:50.167Z,0.000
2018-05-14T14:04:50.787Z,0.000
2018-05-14T14:06:50.166Z,0.000
2018-05-14T14:08:50.269Z,0.000
2018-05-14T14:10:50.426Z,0.000
2018-05-14T14:12:50.662Z,0.000
2018-05-14T14:14:49.834Z,0.000
2018-05-14T14:16:49.962Z,0.000
2018-05-14T14:18:50.050Z,0.000
2018-05-14T14:20:50.229Z,0.000
2018-05-14T14:22:50.358Z,0.000
2018-05-14T14:24:50.526Z,0.000
2018-05-14T14:26:49.842Z,0.000
2018-05-14T14:28:50.052Z,0.000
2018-05-14T14:30:50.290Z,0.000
2018-05-14T14:32:50.422Z,0.000
2018-05-14T14:34:50.098Z,0.000
2018-05-14T14:36:50.512Z,0.000
2018-05-14T14:38:50.135Z,0.000
2018-05-14T14:40:50.447Z,0.000
2018-05-14T14:42:50.765Z,0.000
2018-05-14T14:44:49.985Z,0.000
2018-05-14T14:46:50.178Z,0.000
2018-05-14T14:48:50.281Z,0.000
2018-05-14T14:50:50.764Z,0.000
2018-05-14T14:52:50.166Z,0.000
2018-05-14T14:54:50.442Z,0.000
2018-05-14T14:56:50.229Z,0.000
2018-05-14T14:58:50.545Z,0.000
2018-05-14T15:00:50.706Z,0.000
2018-05-14T15:02:50.386Z,0.000
2018-05-14T15:04:50.003Z,0.000
2018-05-14T15:06:50.333Z,0.165
2018-05-14T15:08:50.596Z,0.154
2018-05-14T15:10:50.739Z,0.143
2018-05-14T15:12:49.843Z,0.103
2018-05-14T15:14:49.999Z,0.143
2018-05-14T15:16:49.860Z,0.148
2018-05-14T15:18:49.987Z,0.160
2018-05-14T15:20:50.105Z,0.154
2018-05-14T15:22:50.179Z,0.143
2018-05-14T15:24:50.280Z,0.177
2018-05-14T15:26:50.482Z,0.131
2018-05-14T15:28:50.668Z,0.154
2018-05-14T15:30:49.849Z,0.165
2018-05-14T15:32:49.970Z,0.171
2018-05-14T15:34:50.484Z,0.165
2018-05-14T15:36:49.884Z,0.131
2018-05-14T15:38:49.991Z,0.148
2018-05-14T15:40:50.152Z,0.125
2018-05-14T15:42:50.380Z,0.131
2018-05-14T15:44:50.555Z,0.154
2018-05-14T15:46:50.787Z,0.200
2018-05-14T15:48:49.938Z,0.200
2018-05-14T15:50:50.048Z,0.131
2018-05-14T15:52:50.225Z,0.114
2018-05-14T15:54:50.382Z,0.114
2018-05-14T15:56:50.639Z,0.120
2018-05-14T15:58:50.709Z,0.165
2018-05-14T16:00:49.876Z,0.097
2018-05-14T16:02:50.032Z,0.125
2018-05-14T16:04:50.313Z,0.137
2018-05-14T16:06:50.558Z,0.194
2018-05-14T16:08:50.730Z,0.143
2018-05-14T16:10:49.904Z,0.137
2018-05-14T16:12:50.069Z,0.143
2018-05-14T16:14:50.173Z,0.131
2018-05-14T16:16:50.416Z,0.125
2018-05-14T16:18:50.536Z,0.154
2018-05-14T16:20:51.320Z,0.000
2018-05-14T16:22:50.762Z,0.068
2018-05-14T16:24:49.900Z,0.143
2018-05-14T16:26:50.139Z,0.165
2018-05-14T16:28:50.233Z,0.103
2018-05-14T16:30:50.381Z,0.108
2018-05-14T16:32:50.501Z,0.160
2018-05-14T16:34:50.762Z,0.080
2018-05-14T16:36:50.122Z,0.103
2018-05-14T16:38:50.290Z,0.137
2018-05-14T16:40:50.495Z,0.177
2018-05-14T16:42:50.693Z,0.200
2018-05-14T16:44:49.776Z,0.120
2018-05-14T16:46:49.983Z,0.137
2018-05-14T16:48:50.120Z,0.194
2018-05-14T16:50:50.243Z,0.120
2018-05-14T16:52:50.326Z,0.177
2018-05-14T16:54:50.534Z,0.177
2018-05-14T16:56:49.848Z,0.125
2018-05-14T16:58:49.957Z,0.120
2018-05-14T17:00:50.082Z,0.143
2018-05-14T17:02:50.204Z,0.143
2018-05-14T17:04:50.522Z,0.154
2018-05-14T17:06:50.685Z,0.154
2018-05-14T17:08:49.840Z,0.188
2018-05-14T17:10:49.996Z,0.188
2018-05-14T17:12:50.106Z,0.137
2018-05-14T17:14:50.249Z,0.160
2018-05-14T17:16:50.685Z,0.131
2018-05-14T17:18:49.840Z,0.148
2018-05-14T17:20:49.999Z,0.171
2018-05-14T17:22:50.143Z,0.177
2018-05-14T17:24:50.272Z,0.125
2018-05-14T17:26:50.507Z,0.120
2018-05-14T17:28:50.582Z,0.143
2018-05-14T17:30:50.788Z,0.148
2018-05-14T17:32:49.916Z,0.194
2018-05-14T17:34:50.344Z,0.160
2018-05-14T17:36:50.590Z,0.154
2018-05-14T17:38:50.662Z,0.154
2018-05-14T17:40:49.824Z,0.182
2018-05-14T17:42:50.032Z,0.143
2018-05-14T17:44:50.154Z,0.188
2018-05-14T17:46:50.541Z,0.103
2018-05-14T17:48:50.753Z,0.120
2018-05-14T17:50:49.897Z,0.148
2018-05-14T17:52:50.310Z,0.108
2018-05-14T17:54:50.668Z,0.205
2018-05-14T17:56:49.993Z,0.154
2018-05-14T17:58:50.185Z,0.171
2018-05-14T18:00:50.374Z,0.125
2018-05-14T18:02:50.538Z,0.108
2018-05-14T18:04:49.882Z,0.171
2018-05-14T18:06:50.141Z,0.097
2018-05-14T18:08:50.303Z,0.125
2018-05-14T18:10:51.165Z,0.165
2018-05-14T18:12:49.856Z,0.120
2018-05-14T18:14:50.068Z,0.091
2018-05-14T18:16:50.424Z,0.194
2018-05-14T18:18:50.614Z,0.194
2018-05-14T18:20:50.761Z,0.125
2018-05-14T18:22:49.927Z,0.143
2018-05-14T18:24:50.080Z,0.086
2018-05-14T18:26:50.602Z,0.143
2018-05-14T18:28:49.970Z,0.217
2018-05-14T18:30:50.178Z,0.165
2018-05-14T18:32:50.288Z,0.137
2018-05-14T18:34:50.618Z,0.114
2018-05-14T18:36:49.923Z,0.143
2018-05-14T18:38:50.056Z,0.103
2018-05-14T18:40:50.294Z,0.114
2018-05-14T18:42:50.436Z,0.160
2018-05-14T18:44:50.505Z,0.182
2018-05-14T18:46:49.796Z,0.148
2018-05-14T18:48:49.909Z,0.137
2018-05-14T18:50:50.005Z,0.137
2018-05-14T18:52:50.265Z,0.137
2018-05-14T18:54:50.373Z,0.182
2018-05-14T18:56:50.598Z,0.154
2018-05-14T18:58:50.725Z,0.182
2018-05-14T19:00:49.872Z,0.131
2018-05-14T19:02:50.018Z,0.200
2018-05-14T19:04:50.299Z,0.171
2018-05-14T19:06:50.576Z,0.114
2018-05-14T19:08:50.821Z,0.131
2018-05-14T19:10:49.949Z,0.160
2018-05-14T19:12:50.102Z,0.148
2018-05-14T19:14:50.262Z,0.148
2018-05-14T19:16:50.563Z,0.165
2018-05-14T19:18:50.416Z,0.120
2018-05-14T19:20:50.581Z,0.137
2018-05-14T19:22:50.761Z,0.131
2018-05-14T19:24:49.928Z,0.125
2018-05-14T19:26:50.137Z,0.217
2018-05-14T19:28:50.249Z,0.217
2018-05-14T19:30:50.473Z,0.143
2018-05-14T19:32:50.588Z,0.160
2018-05-14T19:34:49.922Z,0.148
2018-05-14T19:36:50.113Z,0.177
2018-05-14T19:38:50.347Z,0.160
2018-05-14T19:40:50.500Z,0.154
2018-05-14T19:42:49.807Z,0.165
2018-05-14T19:44:49.929Z,0.148
2018-05-14T19:46:50.204Z,0.188
2018-05-14T19:48:50.326Z,0.131
2018-05-14T19:50:50.648Z,0.165
2018-05-14T19:52:49.944Z,0.200
2018-05-14T19:54:50.070Z,0.120
2018-05-14T19:56:50.378Z,0.171
2018-05-14T19:58:50.495Z,0.143
2018-05-14T20:00:50.659Z,0.182
2018-05-14T20:02:49.847Z,0.154
2018-05-14T20:04:50.162Z,0.177
2018-05-14T20:06:50.953Z,0.154
2018-05-14T20:08:50.198Z,0.143
2018-05-14T20:10:50.381Z,0.154
2018-05-14T20:12:50.800Z,0.120
2018-05-14T20:14:50.095Z,0.165
2018-05-14T20:16:50.335Z,0.160
2018-05-14T20:18:50.565Z,0.165
2018-05-14T20:20:50.771Z,0.097
2018-05-14T20:22:49.974Z,0.148
2018-05-14T20:24:50.153Z,0.154
2018-05-14T20:26:50.412Z,0.137
2018-05-14T20:28:50.563Z,0.108
2018-05-14T20:30:50.714Z,0.103
2018-05-14T20:32:49.963Z,0.120
2018-05-14T20:34:50.362Z,0.143
2018-05-14T20:36:50.617Z,0.165
2018-05-14T20:38:50.726Z,0.234
2018-05-14T20:40:49.913Z,0.194
2018-05-14T20:42:50.028Z,0.137
2018-05-14T20:44:50.201Z,0.171
2018-05-14T20:46:50.427Z,0.108
2018-05-14T20:48:50.518Z,0.194
2018-05-14T20:50:50.706Z,0.108
2018-05-14T20:52:49.842Z,0.148
2018-05-14T20:54:50.011Z,0.137
2018-05-14T20:56:50.294Z,0.137
2018-05-14T20:58:50.392Z,0.182
2018-05-14T21:00:50.591Z,0.114
2018-05-14T21:02:50.699Z,0.114
2018-05-14T21:04:50.237Z,0.103
2018-05-14T21:06:50.448Z,0.160
2018-05-14T21:08:50.601Z,0.177
2018-05-14T21:10:50.779Z,0.131
2018-05-14T21:12:49.873Z,0.137
2018-05-14T21:14:50.551Z,0.154
2018-05-14T21:16:50.209Z,0.125
2018-05-14T21:18:50.305Z,0.148
2018-05-14T21:20:50.436Z,0.125
2018-05-14T21:22:50.632Z,0.165
2018-05-14T21:24:50.765Z,0.131
2018-05-14T21:26:50.130Z,0.171
2018-05-14T21:28:50.328Z,0.182
2018-05-14T21:30:50.478Z,0.131
2018-05-14T21:32:50.627Z,0.234
2018-05-14T21:34:49.959Z,0.154
2018-05-14T21:36:50.223Z,0.097
2018-05-14T21:38:50.374Z,0.086
2018-05-14T21:40:50.543Z,0.086
2018-05-14T21:42:49.922Z,0.143
2018-05-14T21:44:50.093Z,0.143
2018-05-14T21:46:50.294Z,0.165
2018-05-14T21:48:50.477Z,0.154
2018-05-14T21:50:49.822Z,0.137
2018-05-14T21:52:50.051Z,0.205
2018-05-14T21:54:50.223Z,0.114
2018-05-14T21:56:50.526Z,0.148
2018-05-14T21:58:50.665Z,0.165
2018-05-14T22:00:49.818Z,0.165
2018-05-14T22:02:49.942Z,0.165
2018-05-14T22:04:50.384Z,0.160
2018-05-14T22:06:50.612Z,0.194
2018-05-14T22:08:50.770Z,0.194
2018-05-14T22:10:49.908Z,0.154
2018-05-14T22:12:49.996Z,0.171
2018-05-14T22:14:50.121Z,0.177
2018-05-14T22:16:50.329Z,0.108
2018-05-14T22:18:50.386Z,0.160
2018-05-14T22:20:50.575Z,0.148
2018-05-14T22:22:50.665Z,0.188
2018-05-14T22:24:49.954Z,0.143
2018-05-14T22:26:50.364Z,0.108
2018-05-14T22:28:50.618Z,0.103
2018-05-14T22:30:49.926Z,0.137
2018-05-14T22:32:50.254Z,0.143
2018-05-14T22:34:50.797Z,0.171
2018-05-14T22:36:50.157Z,0.177
2018-05-14T22:38:50.507Z,0.114
2018-05-14T22:40:49.807Z,0.143
2018-05-14T22:42:50.325Z,0.114
2018-05-14T22:44:50.692Z,0.114
2018-05-14T22:46:50.237Z,0.148
2018-05-14T22:48:50.386Z,0.160
2018-05-14T22:50:50.657Z,0.131
2018-05-14T22:52:49.977Z,0.148
2018-05-14T22:54:50.248Z,0.160
2018-05-14T22:56:50.590Z,0.120
2018-05-14T22:58:50.049Z,0.125
2018-05-14T23:00:50.339Z,0.177
2018-05-14T23:02:50.532Z,0.137
2018-05-14T23:04:49.940Z,0.177
2018-05-14T23:06:50.378Z,0.171
2018-05-14T23:08:50.704Z,0.108
2018-05-14T23:10:49.999Z,0.108
2018-05-14T23:12:50.283Z,0.165
2018-05-14T23:14:50.534Z,0.148
2018-05-14T23:16:50.751Z,0.143
2018-05-14T23:18:50.092Z,0.154
2018-05-14T23:20:50.344Z,0.177
2018-05-14T23:22:50.526Z,0.137
2018-05-14T23:24:49.833Z,0.154
2018-05-14T23:26:50.279Z,0.108
2018-05-14T23:28:50.618Z,0.211
2018-05-14T23:30:50.805Z,0.160
2018-05-14T23:32:50.225Z,0.120
2018-05-14T23:34:50.644Z,0.114
2018-05-14T23:36:50.045Z,0.160
2018-05-14T23:38:50.379Z,0.148
2018-05-14T23:40:50.693Z,0.143
2018-05-14T23:42:50.097Z,0.143
2018-05-14T23:44:50.405Z,0.108
2018-05-14T23:46:49.833Z,0.086
2018-05-14T23:48:50.229Z,0.160
2018-05-14T23:50:50.555Z,0.120
2018-05-14T23:52:49.856Z,0.182
2018-05-14T23:54:50.177Z,0.143
2018-05-14T23:56:50.596Z,0.188
2018-05-14T23:58:49.988Z,0.137
